createdAt,value
2019-06-15T00:00:57.959Z,1.77
2019-06-15T00:03:31.299Z,1.63
2019-06-15T00:06:04.554Z,2.00
2019-06-15T00:08:37.975Z,1.63
2019-06-15T00:11:11.169Z,1.80
2019-06-15T00:13:44.191Z,1.60
2019-06-15T00:16:17.987Z,1.53
2019-06-15T00:18:51.117Z,1.50
2019-06-15T00:21:24.776Z,1.93
2019-06-15T00:23:57.894Z,1.70
2019-06-15T00:26:31.617Z,1.60
2019-06-15T00:29:04.892Z,1.63
2019-06-15T00:31:37.947Z,1.70
2019-06-15T00:34:11.691Z,1.63
2019-06-15T00:36:44.727Z,1.37
2019-06-15T00:39:17.820Z,1.50
2019-06-15T00:41:51.380Z,1.57
2019-06-15T00:44:24.711Z,1.53
2019-06-15T00:46:58.160Z,1.50
2019-06-15T00:49:31.132Z,1.70
2019-06-15T00:52:04.382Z,1.33
2019-06-15T00:54:49.761Z,1.50
2019-06-15T00:57:12.130Z,1.70
2019-06-15T00:59:45.503Z,1.60
2019-06-15T01:02:18.751Z,1.83
2019-06-15T01:04:51.788Z,1.60
2019-06-15T01:07:24.994Z,1.63
2019-06-15T01:09:59.872Z,1.30
2019-06-15T01:12:33.195Z,1.50
2019-06-15T01:15:22.867Z,1.50
2019-06-15T01:18:00.215Z,1.53
2019-06-15T01:20:33.525Z,1.67
2019-06-15T01:23:08.112Z,1.43
2019-06-15T01:26:03.547Z,1.43
2019-06-15T01:28:35.592Z,1.27
2019-06-15T01:31:11.472Z,1.40
2019-06-15T01:33:45.437Z,1.40
2019-06-15T01:36:28.279Z,1.53
2019-06-15T01:39:04.829Z,1.60
2019-06-15T01:41:49.880Z,1.57
2019-06-15T01:44:23.098Z,1.40
2019-06-15T01:46:56.222Z,1.37
2019-06-15T01:49:30.314Z,1.70
2019-06-15T01:52:11.665Z,1.57
2019-06-15T01:54:48.318Z,2.00
2019-06-15T01:57:40.191Z,1.43
2019-06-15T02:00:24.307Z,1.60
2019-06-15T02:02:57.651Z,1.60
2019-06-15T02:05:30.913Z,2.10
2019-06-15T02:08:04.419Z,1.60
2019-06-15T02:13:43.492Z,1.37
2019-06-15T02:16:17.034Z,1.50
2019-06-15T02:18:50.284Z,1.50
2019-06-15T02:21:23.491Z,1.50
2019-06-15T02:23:57.205Z,1.50
2019-06-15T02:26:30.418Z,1.37
2019-06-15T02:29:03.433Z,1.50
2019-06-15T02:31:36.533Z,1.93
2019-06-15T02:34:10.370Z,1.50
2019-06-15T02:36:43.715Z,1.93
2019-06-15T02:39:17.193Z,1.63
2019-06-15T02:41:50.918Z,1.80
2019-06-15T02:44:23.941Z,1.40
2019-06-15T02:46:57.182Z,1.40
2019-06-15T02:49:30.397Z,1.40
2019-06-15T02:52:03.876Z,1.50
2019-06-15T02:54:49.282Z,1.70
2019-06-15T02:57:22.588Z,1.67
2019-06-15T02:59:55.817Z,1.50
2019-06-15T03:02:29.156Z,1.50
2019-06-15T03:05:02.574Z,1.50
2019-06-15T03:07:35.835Z,1.90
2019-06-15T03:10:09.658Z,1.50
2019-06-15T03:12:42.981Z,1.70
2019-06-15T03:15:16.229Z,1.90
2019-06-15T03:17:49.389Z,1.70
2019-06-15T03:20:24.220Z,1.50
2019-06-15T03:22:57.144Z,1.40
2019-06-15T03:25:30.170Z,1.40
2019-06-15T03:28:03.331Z,1.50
2019-06-15T03:30:36.438Z,1.63
2019-06-15T03:33:10.778Z,1.53
2019-06-15T03:35:43.847Z,1.60
2019-06-15T03:38:17.002Z,1.60
2019-06-15T03:40:50.277Z,1.80
2019-06-15T03:43:23.349Z,1.73
2019-06-15T03:45:56.844Z,1.67
2019-06-15T03:48:30.149Z,1.57
2019-06-15T03:51:03.282Z,1.60
2019-06-15T03:53:36.924Z,1.50
2019-06-15T03:56:21.018Z,1.73
2019-06-15T03:58:44.887Z,1.77
2019-06-15T04:01:26.340Z,1.70
2019-06-15T04:03:59.538Z,1.83
2019-06-15T04:06:32.817Z,1.60
2019-06-15T04:09:07.186Z,1.53
2019-06-15T04:11:40.328Z,1.70
2019-06-15T04:14:13.575Z,1.40
2019-06-15T04:16:46.610Z,1.67
2019-06-15T04:19:19.721Z,1.33
2019-06-15T04:21:53.052Z,1.90
2019-06-15T04:24:26.336Z,1.50
2019-06-15T04:26:59.281Z,1.77
2019-06-15T04:29:32.432Z,1.60
2019-06-15T04:32:05.836Z,1.57
2019-06-15T04:34:38.922Z,1.57
2019-06-15T04:37:15.154Z,1.50
2019-06-15T04:39:49.888Z,1.37
2019-06-15T04:42:23.236Z,1.40
2019-06-15T04:44:56.667Z,1.50
2019-06-15T04:47:30.013Z,1.60
2019-06-15T04:50:03.471Z,1.20
2019-06-15T04:52:36.767Z,1.27
2019-06-15T04:55:10.714Z,1.23
2019-06-15T04:57:43.943Z,1.50
2019-06-15T05:00:17.886Z,1.57
2019-06-15T05:02:51.329Z,1.80
2019-06-15T05:05:24.565Z,2.10
2019-06-15T05:07:57.624Z,2.70
2019-06-15T05:10:30.721Z,2.37
2019-06-15T05:13:03.751Z,2.93
2019-06-15T05:15:37.100Z,2.83
2019-06-15T05:18:10.582Z,2.30
2019-06-15T05:20:43.776Z,2.20
2019-06-15T05:23:17.317Z,2.03
2019-06-15T05:25:52.068Z,2.20
2019-06-15T05:28:25.600Z,2.20
2019-06-15T05:30:58.782Z,2.50
2019-06-15T05:33:32.103Z,1.80
2019-06-15T05:36:05.631Z,1.87
2019-06-15T05:38:38.905Z,1.90
2019-06-15T05:41:11.978Z,1.80
2019-06-15T05:43:45.068Z,2.20
2019-06-15T05:46:18.363Z,2.20
2019-06-15T05:48:52.555Z,2.47
2019-06-15T05:51:25.691Z,2.17
2019-06-15T05:53:58.725Z,1.90
2019-06-15T05:56:33.511Z,2.10
2019-06-15T05:59:07.398Z,1.83
2019-06-15T06:01:40.428Z,2.13
2019-06-15T06:04:13.401Z,2.20
2019-06-15T06:06:46.646Z,2.20
2019-06-15T06:09:19.775Z,2.03
2019-06-15T06:11:52.809Z,1.93
2019-06-15T06:14:25.900Z,1.90
2019-06-15T06:17:00.345Z,1.90
2019-06-15T06:19:34.400Z,2.10
2019-06-15T06:22:07.610Z,1.60
2019-06-15T06:24:40.881Z,1.80
2019-06-15T06:27:14.258Z,2.00
2019-06-15T06:29:47.378Z,1.90
2019-06-15T06:32:20.579Z,1.90
2019-06-15T06:34:53.515Z,1.90
2019-06-15T06:37:26.610Z,1.90
2019-06-15T06:39:59.672Z,1.83
2019-06-15T06:42:33.116Z,2.10
2019-06-15T06:45:07.005Z,1.90
2019-06-15T06:47:40.295Z,1.90
2019-06-15T06:50:14.286Z,2.40
2019-06-15T06:52:47.449Z,1.60
2019-06-15T06:55:20.491Z,1.40
2019-06-15T06:57:57.163Z,1.40
2019-06-15T07:00:29.763Z,1.63
2019-06-15T07:03:05.883Z,1.87
2019-06-15T07:05:39.093Z,2.00
2019-06-15T07:08:12.911Z,1.73
2019-06-15T07:10:45.925Z,1.60
2019-06-15T07:13:18.985Z,1.70
2019-06-15T07:15:53.196Z,1.70
2019-06-15T07:18:26.569Z,1.43
2019-06-15T07:20:59.587Z,1.87
2019-06-15T07:23:32.843Z,1.70
2019-06-15T07:26:05.951Z,1.97
2019-06-15T07:28:40.267Z,2.70
2019-06-15T07:31:13.404Z,1.87
2019-06-15T07:33:46.557Z,2.20
2019-06-15T07:36:19.630Z,1.70
2019-06-15T07:38:52.655Z,1.70
2019-06-15T07:41:25.869Z,1.97
2019-06-15T07:43:58.848Z,1.73
2019-06-15T07:46:31.945Z,1.70
2019-06-15T07:49:05.220Z,1.80
2019-06-15T07:51:38.328Z,1.93
2019-06-15T07:54:11.611Z,1.80
2019-06-15T07:56:44.659Z,1.67
2019-06-15T07:59:18.040Z,1.60
2019-06-15T08:01:51.467Z,2.03
2019-06-15T08:04:26.429Z,1.70
2019-06-15T08:06:59.543Z,1.90
2019-06-15T08:09:32.616Z,1.70
2019-06-15T08:12:05.840Z,1.80
2019-06-15T08:14:39.089Z,1.80
2019-06-15T08:17:12.402Z,1.70
2019-06-15T08:19:45.516Z,1.80
2019-06-15T08:22:19.159Z,1.67
2019-06-15T08:24:52.257Z,1.80
2019-06-15T08:27:25.457Z,2.27
2019-06-15T08:29:58.556Z,2.07
2019-06-15T08:32:31.701Z,1.93
2019-06-15T08:35:05.100Z,2.10
2019-06-15T08:37:38.187Z,1.90
2019-06-15T08:40:12.241Z,1.70
2019-06-15T08:42:45.297Z,1.53
2019-06-15T08:45:18.495Z,2.00
2019-06-15T08:47:52.015Z,1.73
2019-06-15T08:50:25.045Z,2.00
2019-06-15T08:52:58.349Z,1.67
2019-06-15T08:55:31.430Z,1.77
2019-06-15T08:58:04.670Z,1.87
2019-06-15T09:00:38.213Z,2.50
2019-06-15T09:03:12.715Z,1.90
2019-06-15T09:05:45.932Z,2.10
2019-06-15T09:08:19.039Z,2.20
2019-06-15T09:10:52.113Z,2.03
2019-06-15T09:13:25.321Z,2.30
2019-06-15T09:15:58.945Z,2.13
2019-06-15T09:18:32.043Z,2.10
2019-06-15T09:21:05.058Z,2.03
2019-06-15T09:23:38.048Z,2.37
2019-06-15T09:26:11.332Z,2.70
2019-06-15T09:28:44.474Z,3.23
2019-06-15T09:31:17.604Z,3.73
2019-06-15T09:33:50.531Z,3.33
2019-06-15T09:36:23.827Z,2.97
2019-06-15T09:38:57.139Z,3.33
2019-06-15T09:41:30.499Z,2.77
2019-06-15T09:44:03.503Z,3.70
2019-06-15T09:46:36.809Z,3.77
2019-06-15T09:49:09.958Z,3.40
2019-06-15T09:51:43.235Z,3.40
2019-06-15T09:54:16.477Z,3.50
2019-06-15T09:56:49.662Z,3.20
2019-06-15T09:59:26.085Z,3.33
2019-06-15T10:01:57.154Z,3.87
2019-06-15T10:04:30.228Z,3.40
2019-06-15T10:07:03.394Z,3.23
2019-06-15T10:09:36.753Z,3.07
2019-06-15T10:12:09.953Z,3.20
2019-06-15T10:14:42.997Z,3.10
2019-06-15T10:17:16.135Z,3.00
2019-06-15T10:19:49.150Z,3.40
2019-06-15T10:22:22.245Z,3.03
2019-06-15T10:24:55.438Z,3.17
2019-06-15T10:27:28.657Z,3.27
2019-06-15T10:30:01.783Z,3.30
2019-06-15T10:32:35.025Z,3.50
2019-06-15T10:35:10.235Z,3.33
2019-06-15T10:37:43.726Z,3.43
2019-06-15T10:40:17.420Z,3.70
2019-06-15T10:42:50.584Z,3.00
2019-06-15T10:45:25.316Z,3.70
2019-06-15T10:47:58.429Z,3.33
2019-06-15T10:50:31.625Z,3.53
2019-06-15T10:53:04.691Z,3.23
2019-06-15T10:55:37.704Z,3.43
2019-06-15T10:58:10.930Z,3.20
2019-06-15T11:00:43.941Z,2.97
2019-06-15T11:03:17.206Z,3.40
2019-06-15T11:05:50.314Z,2.63
2019-06-15T11:08:23.485Z,3.47
2019-06-15T11:11:21.954Z,3.07
2019-06-15T11:13:55.877Z,3.80
2019-06-15T11:16:28.931Z,3.13
2019-06-15T11:19:02.046Z,3.13
2019-06-15T11:21:35.361Z,3.63
2019-06-15T11:24:08.537Z,3.07
2019-06-15T11:26:42.178Z,3.20
2019-06-15T11:29:15.695Z,3.60
2019-06-15T11:31:49.005Z,3.70
2019-06-15T11:34:22.118Z,3.27
2019-06-15T11:36:55.108Z,3.20
2019-06-15T11:39:28.922Z,3.63
2019-06-15T11:42:01.903Z,3.30
2019-06-15T11:44:36.264Z,3.30
2019-06-15T11:47:09.381Z,2.93
2019-06-15T11:49:42.558Z,3.10
2019-06-15T11:52:15.782Z,3.93
2019-06-15T11:54:48.913Z,3.10
2019-06-15T11:57:22.084Z,3.30
2019-06-15T11:59:55.296Z,2.93
2019-06-15T12:02:28.717Z,3.00
2019-06-15T12:05:01.860Z,3.30
2019-06-15T12:07:34.922Z,4.10
2019-06-15T12:10:08.260Z,3.30
2019-06-15T12:12:41.322Z,3.67
2019-06-15T12:15:14.570Z,3.40
2019-06-15T12:17:47.472Z,3.47
2019-06-15T12:20:20.629Z,3.10
2019-06-15T12:22:53.779Z,4.00
2019-06-15T12:25:26.961Z,3.57
2019-06-15T12:28:00.098Z,3.40
2019-06-15T12:30:47.060Z,3.70
2019-06-15T12:33:15.279Z,4.17
2019-06-15T12:35:48.406Z,3.67
2019-06-15T12:38:21.527Z,3.40
2019-06-15T12:40:54.846Z,3.77
2019-06-15T12:43:28.141Z,3.87
2019-06-15T12:46:01.295Z,3.60
2019-06-15T12:48:34.422Z,3.83
2019-06-15T12:51:07.490Z,4.03
2019-06-15T12:53:40.556Z,3.57
2019-06-15T12:56:14.069Z,3.70
2019-06-15T12:58:47.224Z,3.50
2019-06-15T13:01:20.334Z,3.83
2019-06-15T13:03:53.711Z,4.50
2019-06-15T13:06:26.932Z,3.47
2019-06-15T13:09:00.051Z,4.07
2019-06-15T13:11:33.040Z,4.40
2019-06-15T13:14:06.059Z,4.27
2019-06-15T13:16:39.997Z,3.73
2019-06-15T13:19:13.341Z,4.23
2019-06-15T13:21:48.003Z,3.83
2019-06-15T13:24:20.997Z,4.13
2019-06-15T13:26:54.159Z,3.90
2019-06-15T13:29:27.210Z,4.30
2019-06-15T13:32:00.293Z,4.13
2019-06-15T13:34:33.501Z,4.20
2019-06-15T13:37:09.323Z,4.70
2019-06-15T13:39:42.263Z,7.00
2019-06-15T13:42:15.542Z,7.13
2019-06-15T13:44:48.610Z,8.43
2019-06-15T13:47:23.448Z,7.17
2019-06-15T13:49:56.531Z,7.13
2019-06-15T13:52:29.797Z,7.50
2019-06-15T13:55:03.008Z,7.67
2019-06-15T13:57:36.493Z,6.20
2019-06-15T14:00:10.732Z,6.73
2019-06-15T14:02:44.204Z,7.60
2019-06-15T14:05:17.629Z,7.83
2019-06-15T14:07:50.768Z,7.50
2019-06-15T14:10:24.166Z,6.50
2019-06-15T14:12:57.407Z,7.30
2019-06-15T14:15:30.888Z,7.70
2019-06-15T14:18:04.117Z,6.63
2019-06-15T14:20:37.206Z,6.60
2019-06-15T14:23:13.135Z,6.97
2019-06-15T14:25:49.559Z,6.33
2019-06-15T14:28:25.677Z,5.93
2019-06-15T14:30:59.513Z,6.13
2019-06-15T14:33:32.968Z,6.17
2019-06-15T14:36:06.138Z,6.30
2019-06-15T14:38:39.437Z,5.90
2019-06-15T14:41:14.899Z,6.20
2019-06-15T14:43:50.368Z,5.20
2019-06-15T14:46:23.357Z,6.03
2019-06-15T14:48:56.635Z,5.20
2019-06-15T14:51:29.631Z,4.90
2019-06-15T14:54:02.753Z,5.50
2019-06-15T14:56:35.924Z,5.63
2019-06-15T14:59:09.951Z,5.70
2019-06-15T15:01:42.929Z,4.73
2019-06-15T15:04:16.937Z,4.70
2019-06-15T15:06:50.393Z,5.60
2019-06-15T15:09:23.669Z,5.40
2019-06-15T15:11:57.991Z,5.67
2019-06-15T15:14:31.189Z,4.63
2019-06-15T15:17:06.391Z,5.57
2019-06-15T15:19:39.099Z,5.00
2019-06-15T15:22:12.181Z,5.40
2019-06-15T15:24:45.357Z,5.07
2019-06-15T15:27:18.487Z,5.20
2019-06-15T15:29:51.735Z,5.53
2019-06-15T15:32:30.515Z,5.43
2019-06-15T15:34:59.838Z,5.30
2019-06-15T15:37:32.931Z,5.10
2019-06-15T15:40:16.611Z,5.43
2019-06-15T15:42:50.199Z,5.20
2019-06-15T15:45:26.234Z,5.07
2019-06-15T15:47:59.844Z,4.93
2019-06-15T15:50:33.282Z,5.57
2019-06-15T15:53:06.327Z,5.03
2019-06-15T15:55:39.517Z,5.43
2019-06-15T15:58:12.808Z,5.90
2019-06-15T16:00:46.884Z,5.80
2019-06-15T16:03:20.671Z,5.43
2019-06-15T16:05:55.984Z,6.53
2019-06-15T16:08:29.365Z,5.80
2019-06-15T16:11:02.636Z,5.37
2019-06-15T16:13:35.781Z,5.50
2019-06-15T16:16:09.098Z,6.07
2019-06-15T16:18:42.313Z,5.67
2019-06-15T16:21:16.875Z,5.90
2019-06-15T16:23:50.671Z,5.67
2019-06-15T16:26:27.002Z,6.20
2019-06-15T16:28:58.576Z,6.03
2019-06-15T16:31:31.876Z,6.30
2019-06-15T16:34:05.070Z,6.37
2019-06-15T16:36:38.541Z,6.47
2019-06-15T16:39:11.834Z,6.00
2019-06-15T16:41:46.985Z,6.03
2019-06-15T16:44:19.721Z,6.77
2019-06-15T16:46:52.961Z,6.77
2019-06-15T16:49:26.852Z,7.13
2019-06-15T16:52:07.959Z,6.60
2019-06-15T16:54:41.209Z,5.73
2019-06-15T16:57:16.069Z,6.30
2019-06-15T16:59:49.127Z,6.63
2019-06-15T17:02:22.661Z,6.43
2019-06-15T17:04:56.973Z,6.20
2019-06-15T17:07:30.448Z,6.60
2019-06-15T17:10:06.243Z,6.47
2019-06-15T17:12:38.465Z,7.23
2019-06-15T17:15:12.792Z,6.90
2019-06-15T17:17:46.459Z,6.97
2019-06-15T17:20:22.098Z,7.17
2019-06-15T17:22:59.719Z,6.50
2019-06-15T17:25:33.119Z,7.23
2019-06-15T17:28:06.427Z,7.03
2019-06-15T17:30:39.473Z,6.40
2019-06-15T17:33:13.027Z,6.80
2019-06-15T17:35:56.275Z,7.43
2019-06-15T17:38:21.229Z,7.20
2019-06-15T17:40:56.961Z,6.23
2019-06-15T17:43:29.181Z,6.67
2019-06-15T17:46:07.274Z,6.73
2019-06-15T17:48:39.821Z,6.73
2019-06-15T17:51:16.081Z,5.87
2019-06-15T17:53:49.162Z,6.70
2019-06-15T17:56:23.963Z,6.53
2019-06-15T17:58:57.292Z,6.30
2019-06-15T18:01:30.546Z,6.30
2019-06-15T18:04:03.932Z,7.00
2019-06-15T18:06:37.023Z,6.50
2019-06-15T18:09:11.969Z,6.43
2019-06-15T18:11:46.425Z,5.93
2019-06-15T18:14:26.463Z,6.10
2019-06-15T18:17:00.137Z,5.87
2019-06-15T18:19:33.337Z,5.37
2019-06-15T18:22:09.822Z,5.60
2019-06-15T18:24:43.113Z,6.20
2019-06-15T18:27:16.902Z,5.87
2019-06-15T18:29:50.273Z,5.63
2019-06-15T18:32:23.490Z,4.93
2019-06-15T18:34:56.848Z,5.67
2019-06-15T18:37:30.201Z,5.30
2019-06-15T18:40:03.485Z,6.03
2019-06-15T18:42:37.023Z,5.77
2019-06-15T18:45:10.960Z,6.17
2019-06-15T18:47:44.347Z,6.10
2019-06-15T18:50:20.171Z,6.23
2019-06-15T18:52:56.268Z,6.37
2019-06-15T18:55:28.150Z,5.70
2019-06-15T18:58:01.501Z,6.10
2019-06-15T19:00:36.835Z,6.23
2019-06-15T19:03:10.609Z,5.60
2019-06-15T19:05:43.944Z,5.60
2019-06-15T19:08:17.562Z,5.30
2019-06-15T19:11:10.866Z,6.27
2019-06-15T19:13:46.414Z,5.43
2019-06-15T19:16:18.440Z,5.07
2019-06-15T19:18:52.772Z,5.59
2019-06-15T19:21:26.130Z,5.03
2019-06-15T19:23:59.471Z,5.77
2019-06-15T19:26:37.420Z,5.00
2019-06-15T19:29:09.586Z,5.70
2019-06-15T19:31:46.659Z,5.03
2019-06-15T19:34:18.674Z,6.50
2019-06-15T19:36:52.322Z,5.60
2019-06-15T19:39:26.772Z,5.17
2019-06-15T19:42:00.398Z,5.60
2019-06-15T19:44:33.718Z,5.60
2019-06-15T19:47:07.217Z,5.53
2019-06-15T19:49:40.735Z,6.27
2019-06-15T19:52:16.734Z,5.20
2019-06-15T19:54:48.765Z,5.33
2019-06-15T19:57:23.094Z,5.70
2019-06-15T19:59:56.517Z,5.53
2019-06-15T20:02:29.762Z,5.40
2019-06-15T20:05:03.925Z,5.17
2019-06-15T20:07:37.773Z,5.53
2019-06-15T20:10:12.781Z,4.40
2019-06-15T20:12:46.611Z,4.80
2019-06-15T20:15:20.577Z,5.70
2019-06-15T20:17:53.904Z,5.40
2019-06-15T20:20:29.044Z,5.63
2019-06-15T20:23:02.084Z,5.00
2019-06-15T20:25:36.755Z,4.90
2019-06-15T20:28:10.365Z,5.23
2019-06-15T20:30:46.038Z,5.17
2019-06-15T20:33:18.239Z,5.30
2019-06-15T20:35:51.530Z,6.07
2019-06-15T20:38:26.951Z,6.40
2019-06-15T20:41:00.153Z,5.07
2019-06-15T20:43:33.757Z,6.10
2019-06-15T20:46:08.477Z,4.67
2019-06-15T20:48:41.809Z,5.67
2019-06-15T20:51:17.349Z,4.77
2019-06-15T20:53:50.080Z,4.27
2019-06-15T20:56:23.570Z,4.50
2019-06-15T20:58:57.168Z,5.37
2019-06-15T21:01:31.522Z,5.03
2019-06-15T21:04:07.006Z,5.40
2019-06-15T21:06:39.669Z,4.87
2019-06-15T21:09:15.621Z,4.13
2019-06-15T21:11:52.013Z,4.20
2019-06-15T21:14:27.278Z,4.33
2019-06-15T21:17:01.291Z,4.67
2019-06-15T21:19:36.092Z,4.63
2019-06-15T21:22:09.559Z,4.57
2019-06-15T21:24:43.098Z,4.23
2019-06-15T21:27:16.655Z,4.80
2019-06-15T21:29:50.097Z,4.30
2019-06-15T21:32:23.407Z,3.97
2019-06-15T21:34:56.552Z,4.53
2019-06-15T21:37:30.587Z,3.90
2019-06-15T21:40:05.961Z,4.07
2019-06-15T21:42:41.728Z,4.07
2019-06-15T21:45:15.301Z,3.87
2019-06-15T21:47:55.882Z,3.83
2019-06-15T21:50:56.852Z,4.23
2019-06-15T21:53:47.046Z,4.20
2019-06-15T21:56:29.134Z,3.83
2019-06-15T21:59:51.470Z,4.10
2019-06-15T22:02:26.648Z,3.47
2019-06-15T22:05:03.569Z,4.03
2019-06-15T22:07:38.053Z,3.90
2019-06-15T22:10:17.134Z,4.72
2019-06-15T22:12:52.991Z,4.60
2019-06-15T22:15:46.656Z,4.63
2019-06-15T22:18:21.018Z,4.03
2019-06-15T22:21:03.660Z,4.10
2019-06-15T22:23:42.267Z,3.80
2019-06-15T22:26:19.679Z,3.67
2019-06-15T22:28:54.081Z,3.50
2019-06-15T22:31:33.780Z,3.90
2019-06-15T22:34:07.238Z,4.00
2019-06-15T22:36:40.505Z,3.87
2019-06-15T22:39:14.088Z,3.73
2019-06-15T22:41:47.524Z,3.47
2019-06-15T22:44:21.098Z,3.23
2019-06-15T22:46:56.701Z,3.23
2019-06-15T22:49:35.964Z,3.50
2019-06-15T22:52:17.021Z,3.00
2019-06-15T22:54:49.123Z,2.93
2019-06-15T22:57:22.568Z,3.47
2019-06-15T22:59:56.762Z,2.90
2019-06-15T23:02:30.102Z,3.23
2019-06-15T23:05:06.669Z,3.17
2019-06-15T23:07:40.660Z,2.70
2019-06-15T23:10:16.522Z,2.90
2019-06-15T23:12:53.112Z,2.57
2019-06-15T23:15:30.015Z,2.87
2019-06-15T23:18:08.970Z,3.00
2019-06-15T23:20:46.204Z,2.93
2019-06-15T23:23:20.185Z,2.70
2019-06-15T23:25:56.775Z,2.73
2019-06-15T23:28:29.986Z,2.30
2019-06-15T23:31:03.256Z,2.70
2019-06-15T23:33:36.741Z,2.60
2019-06-15T23:36:17.109Z,2.53
2019-06-15T23:38:49.740Z,2.10
2019-06-15T23:41:22.828Z,2.00
2019-06-15T23:43:56.194Z,2.43
2019-06-15T23:46:29.909Z,2.40
2019-06-15T23:49:06.947Z,2.23
2019-06-15T23:51:39.089Z,2.50
2019-06-15T23:54:13.238Z,2.47
2019-06-15T23:56:46.581Z,2.40
2019-06-15T23:59:19.755Z,2.10
